createdAt,value
2019-01-11T00:01:37.668Z,2.10
2019-01-11T00:04:05.532Z,2.19
2019-01-11T00:06:33.639Z,2.20
2019-01-11T00:09:01.608Z,2.29
2019-01-11T00:11:29.599Z,2.29
2019-01-11T00:13:57.529Z,2.10
2019-01-11T00:16:25.548Z,2.11
2019-01-11T00:18:53.526Z,2.24
2019-01-11T00:21:21.450Z,2.27
2019-01-11T00:23:49.626Z,2.31
2019-01-11T00:26:17.650Z,2.32
2019-01-11T00:28:45.696Z,2.27
2019-01-11T00:31:13.603Z,2.30
2019-01-11T00:33:41.781Z,2.27
2019-01-11T00:36:09.785Z,2.29
2019-01-11T00:38:37.837Z,2.25
2019-01-11T00:41:06.092Z,2.22
2019-01-11T00:43:36.485Z,2.26
2019-01-11T00:46:04.475Z,2.28
2019-01-11T00:48:32.386Z,2.25
2019-01-11T00:51:00.157Z,2.24
2019-01-11T00:53:27.940Z,2.19
2019-01-11T00:55:55.717Z,2.19
2019-01-11T00:58:23.612Z,1.98
2019-01-11T01:00:51.400Z,1.99
2019-01-11T01:03:19.290Z,2.00
2019-01-11T01:05:48.151Z,1.88
2019-01-11T01:08:16.093Z,1.85
2019-01-11T01:10:43.924Z,1.84
2019-01-11T01:13:11.834Z,1.86
2019-01-11T01:15:39.596Z,1.89
2019-01-11T01:18:07.631Z,1.79
2019-01-11T01:20:35.790Z,1.80
2019-01-11T01:23:03.762Z,1.73
2019-01-11T01:25:31.522Z,1.74
2019-01-11T01:27:59.258Z,1.73
2019-01-11T01:30:27.002Z,1.78
2019-01-11T01:32:54.921Z,1.87
2019-01-11T01:35:22.674Z,1.91
2019-01-11T01:37:50.624Z,1.94
2019-01-11T01:40:18.392Z,1.94
2019-01-11T01:42:46.109Z,1.92
2019-01-11T01:45:15.479Z,1.93
2019-01-11T01:47:43.921Z,1.84
2019-01-11T01:50:12.976Z,1.93
2019-01-11T01:52:40.826Z,1.93
2019-01-11T01:55:09.579Z,2.04
2019-01-11T01:57:37.313Z,2.04
2019-01-11T02:00:08.729Z,1.98
2019-01-11T02:02:36.819Z,1.91
2019-01-11T02:05:06.407Z,1.94
2019-01-11T02:07:34.177Z,2.01
2019-01-11T02:10:02.452Z,2.13
2019-01-11T02:12:30.371Z,2.04
2019-01-11T02:14:58.103Z,1.96
2019-01-11T02:17:25.859Z,1.90
2019-01-11T02:19:53.657Z,1.84
2019-01-11T02:22:21.413Z,1.86
2019-01-11T02:24:49.359Z,1.92
2019-01-11T02:27:17.119Z,1.93
2019-01-11T02:29:45.026Z,1.94
2019-01-11T02:32:12.812Z,1.85
2019-01-11T02:34:40.770Z,1.84
2019-01-11T02:37:08.525Z,1.89
2019-01-11T02:39:36.467Z,1.88
2019-01-11T02:42:04.331Z,1.90
2019-01-11T02:44:32.660Z,1.94
2019-01-11T02:47:01.806Z,2.03
2019-01-11T02:49:30.673Z,1.97
2019-01-11T02:51:58.435Z,1.98
2019-01-11T02:54:26.170Z,1.93
2019-01-11T02:56:54.063Z,1.90
2019-01-11T02:59:21.976Z,1.84
2019-01-11T03:01:49.723Z,1.91
2019-01-11T03:04:17.862Z,1.88
2019-01-11T03:06:45.650Z,1.87
2019-01-11T03:09:13.585Z,1.85
2019-01-11T03:11:41.364Z,1.98
2019-01-11T03:14:09.109Z,1.90
2019-01-11T03:16:36.985Z,1.92
2019-01-11T03:19:04.767Z,1.79
2019-01-11T03:21:32.514Z,1.94
2019-01-11T03:24:00.289Z,1.95
2019-01-11T03:26:28.188Z,1.88
2019-01-11T03:28:56.104Z,1.91
2019-01-11T03:31:49.316Z,1.89
2019-01-11T03:34:17.319Z,1.83
2019-01-11T03:36:45.072Z,1.81
2019-01-11T03:39:13.196Z,1.86
2019-01-11T03:42:06.743Z,1.83
2019-01-11T03:44:34.627Z,1.88
2019-01-11T03:47:02.587Z,1.81
2019-01-11T03:49:30.486Z,1.79
2019-01-11T03:51:58.463Z,1.79
2019-01-11T03:54:26.182Z,1.70
2019-01-11T03:56:54.143Z,1.68
2019-01-11T03:59:22.020Z,1.76
2019-01-11T04:01:49.930Z,1.65
2019-01-11T04:04:17.882Z,1.63
2019-01-11T04:06:45.626Z,1.78
2019-01-11T04:09:13.394Z,1.67
2019-01-11T04:11:41.356Z,1.57
2019-01-11T04:14:09.132Z,1.52
2019-01-11T04:16:37.058Z,1.42
2019-01-11T04:19:08.070Z,1.44
2019-01-11T04:21:35.812Z,1.41
2019-01-11T04:24:03.547Z,1.30
2019-01-11T04:26:31.683Z,1.44
2019-01-11T04:28:59.631Z,1.45
2019-01-11T04:31:27.433Z,1.38
2019-01-11T04:33:57.944Z,1.47
2019-01-11T04:36:25.943Z,1.44
2019-01-11T04:38:53.791Z,1.50
2019-01-11T04:41:21.619Z,1.43
2019-01-11T04:43:49.504Z,1.51
2019-01-11T04:46:17.385Z,1.30
2019-01-11T04:48:45.557Z,1.44
2019-01-11T04:51:13.347Z,1.42
2019-01-11T04:53:41.264Z,1.52
2019-01-11T04:56:09.076Z,1.45
2019-01-11T04:58:37.026Z,1.30
2019-01-11T05:01:05.032Z,1.35
2019-01-11T05:03:32.952Z,1.42
2019-01-11T05:06:00.689Z,1.34
2019-01-11T05:08:28.614Z,1.30
2019-01-11T05:10:56.517Z,1.42
2019-01-11T05:13:35.673Z,1.32
2019-01-11T05:16:03.614Z,1.39
2019-01-11T05:18:31.613Z,1.35
2019-01-11T05:20:59.459Z,1.39
2019-01-11T05:23:27.371Z,1.44
2019-01-11T05:25:56.320Z,1.49
2019-01-11T05:28:24.662Z,1.37
2019-01-11T05:30:52.650Z,1.46
2019-01-11T05:33:21.836Z,1.44
2019-01-11T05:35:49.766Z,1.51
2019-01-11T05:38:17.784Z,1.39
2019-01-11T05:40:45.717Z,1.48
2019-01-11T05:43:13.436Z,1.48
2019-01-11T05:45:41.358Z,1.56
2019-01-11T05:48:10.314Z,1.59
2019-01-11T05:50:38.075Z,1.55
2019-01-11T05:53:06.244Z,1.47
2019-01-11T05:55:44.202Z,1.33
2019-01-11T05:58:37.893Z,1.41
2019-01-11T06:01:06.047Z,1.45
2019-01-11T06:03:33.989Z,1.37
2019-01-11T06:06:01.903Z,1.55
2019-01-11T06:08:30.661Z,1.60
2019-01-11T06:10:58.425Z,1.44
2019-01-11T06:13:26.168Z,1.45
2019-01-11T06:15:53.930Z,1.49
2019-01-11T06:18:22.203Z,1.46
2019-01-11T06:20:50.053Z,1.45
2019-01-11T06:23:17.998Z,1.44
2019-01-11T06:25:45.772Z,1.51
2019-01-11T06:28:13.544Z,1.48
2019-01-11T06:30:41.270Z,1.47
2019-01-11T06:33:09.018Z,1.61
2019-01-11T06:35:36.964Z,1.47
2019-01-11T06:38:04.715Z,1.58
2019-01-11T06:40:32.623Z,1.52
2019-01-11T06:43:03.673Z,1.61
2019-01-11T06:45:30.210Z,1.38
2019-01-11T06:47:58.169Z,1.45
2019-01-11T06:50:25.951Z,1.57
2019-01-11T06:52:53.893Z,1.59
2019-01-11T06:55:21.665Z,1.53
2019-01-11T06:57:49.465Z,1.40
2019-01-11T07:00:17.417Z,1.51
2019-01-11T07:02:45.493Z,1.60
2019-01-11T07:05:14.038Z,1.63
2019-01-11T07:07:42.483Z,1.53
2019-01-11T07:10:14.841Z,1.64
2019-01-11T07:12:42.794Z,1.62
2019-01-11T07:15:11.039Z,1.55
2019-01-11T07:17:38.824Z,1.59
2019-01-11T07:20:08.174Z,1.78
2019-01-11T07:22:40.541Z,1.73
2019-01-11T07:25:08.982Z,1.60
2019-01-11T07:27:42.026Z,1.78
2019-01-11T07:30:10.812Z,1.74
2019-01-11T07:32:38.592Z,1.70
2019-01-11T07:35:06.748Z,1.60
2019-01-11T07:37:34.718Z,1.48
2019-01-11T07:40:03.311Z,1.41
2019-01-11T07:42:31.281Z,1.56
2019-01-11T07:44:59.108Z,1.52
2019-01-11T07:47:26.872Z,1.60
2019-01-11T07:49:54.638Z,1.57
2019-01-11T07:52:22.436Z,1.57
2019-01-11T07:54:50.373Z,1.44
2019-01-11T07:57:18.167Z,1.49
2019-01-11T07:59:46.266Z,1.48
2019-01-11T08:02:14.101Z,1.51
2019-01-11T08:04:42.013Z,1.45
2019-01-11T08:07:10.111Z,1.47
2019-01-11T08:09:37.876Z,1.60
2019-01-11T08:12:05.648Z,1.53
2019-01-11T08:14:33.411Z,1.71
2019-01-11T08:17:01.169Z,1.58
2019-01-11T08:19:28.911Z,1.63
2019-01-11T08:21:56.651Z,1.68
2019-01-11T08:24:24.645Z,1.73
2019-01-11T08:26:52.891Z,1.79
2019-01-11T08:29:21.004Z,1.83
2019-01-11T08:31:48.740Z,1.90
2019-01-11T08:34:16.499Z,1.93
2019-01-11T08:36:44.251Z,1.86
2019-01-11T08:39:12.028Z,1.91
2019-01-11T08:41:39.775Z,2.01
2019-01-11T08:44:07.640Z,2.04
2019-01-11T08:46:35.446Z,2.01
2019-01-11T08:49:03.215Z,2.04
2019-01-11T08:51:31.035Z,2.04
2019-01-11T08:53:58.787Z,2.08
2019-01-11T08:56:26.525Z,2.11
2019-01-11T08:58:54.325Z,2.15
2019-01-11T09:01:22.111Z,2.08
2019-01-11T09:03:50.063Z,2.03
2019-01-11T09:06:19.828Z,1.96
2019-01-11T09:08:48.189Z,1.97
2019-01-11T09:11:16.446Z,2.06
2019-01-11T09:13:44.415Z,1.98
2019-01-11T09:16:12.179Z,2.08
2019-01-11T09:18:45.327Z,2.13
2019-01-11T09:21:13.308Z,2.09
2019-01-11T09:23:41.405Z,2.25
2019-01-11T09:26:10.028Z,2.26
2019-01-11T09:28:37.790Z,2.33
2019-01-11T09:31:05.774Z,2.31
2019-01-11T09:33:33.502Z,2.33
2019-01-11T09:36:01.256Z,2.44
2019-01-11T09:38:29.026Z,2.27
2019-01-11T09:40:56.988Z,2.21
2019-01-11T09:43:25.828Z,2.28
2019-01-11T09:45:53.702Z,2.21
2019-01-11T09:48:21.416Z,2.26
2019-01-11T09:50:49.216Z,2.23
2019-01-11T09:53:16.973Z,2.31
2019-01-11T09:55:44.949Z,2.31
2019-01-11T09:58:12.731Z,2.35
2019-01-11T10:00:40.828Z,2.53
2019-01-11T10:03:10.157Z,2.61
2019-01-11T10:05:38.123Z,2.59
2019-01-11T10:08:06.071Z,2.52
2019-01-11T10:10:33.830Z,2.42
2019-01-11T10:13:01.582Z,2.43
2019-01-11T10:15:29.499Z,2.40
2019-01-11T10:17:58.102Z,2.38
2019-01-11T10:20:26.068Z,2.44
2019-01-11T10:22:53.894Z,2.47
2019-01-11T10:25:21.713Z,2.69
2019-01-11T10:27:49.553Z,2.66
2019-01-11T10:30:18.838Z,2.58
2019-01-11T10:32:46.743Z,2.61
2019-01-11T10:35:14.643Z,2.66
2019-01-11T10:37:42.532Z,2.67
2019-01-11T10:40:12.866Z,2.64
2019-01-11T10:42:41.098Z,2.79
2019-01-11T10:45:13.393Z,2.82
2019-01-11T10:47:41.297Z,2.64
2019-01-11T10:50:12.697Z,2.74
2019-01-11T10:52:40.726Z,2.78
2019-01-11T10:55:10.154Z,2.71
2019-01-11T10:57:37.921Z,2.46
2019-01-11T11:00:14.449Z,2.46
2019-01-11T11:02:42.249Z,2.58
2019-01-11T11:05:10.131Z,2.59
2019-01-11T11:07:38.095Z,2.59
2019-01-11T11:10:07.496Z,2.82
2019-01-11T11:12:35.435Z,2.79
2019-01-11T11:15:05.111Z,2.78
2019-01-11T11:17:34.369Z,2.67
2019-01-11T11:20:02.561Z,2.76
2019-01-11T11:22:30.335Z,2.75
2019-01-11T11:24:58.349Z,2.85
2019-01-11T11:27:26.325Z,2.80
2019-01-11T11:29:54.083Z,2.88
2019-01-11T11:32:30.439Z,2.80
2019-01-11T11:34:58.179Z,2.94
2019-01-11T11:37:28.016Z,2.90
2019-01-11T11:39:55.815Z,2.99
2019-01-11T11:42:23.690Z,2.96
2019-01-11T11:44:51.474Z,2.77
2019-01-11T11:47:19.259Z,2.94
2019-01-11T11:49:47.021Z,3.04
2019-01-11T11:52:16.116Z,3.10
2019-01-11T11:54:44.070Z,3.14
2019-01-11T11:57:12.042Z,3.25
2019-01-11T11:59:40.540Z,3.16
2019-01-11T12:02:08.488Z,3.24
2019-01-11T12:04:36.224Z,3.27
2019-01-11T12:07:07.633Z,3.33
2019-01-11T12:09:34.260Z,3.35
2019-01-11T12:12:14.465Z,3.34
2019-01-11T12:14:42.294Z,3.22
2019-01-11T12:17:10.256Z,3.31
2019-01-11T12:19:38.023Z,3.24
2019-01-11T12:22:05.815Z,3.17
2019-01-11T12:24:33.620Z,3.21
2019-01-11T12:27:01.387Z,3.16
2019-01-11T12:29:29.411Z,3.12
2019-01-11T12:31:57.221Z,3.21
2019-01-11T12:34:25.021Z,3.23
2019-01-11T12:36:52.768Z,3.17
2019-01-11T12:39:20.575Z,3.18
2019-01-11T12:41:48.324Z,3.19
2019-01-11T12:44:16.082Z,3.14
2019-01-11T12:46:43.856Z,3.21
2019-01-11T12:49:11.649Z,3.23
2019-01-11T12:51:39.403Z,3.32
2019-01-11T12:54:07.291Z,3.40
2019-01-11T12:56:35.203Z,3.43
2019-01-11T12:59:03.003Z,3.48
2019-01-11T13:01:30.823Z,3.54
2019-01-11T13:03:58.625Z,3.51
2019-01-11T13:06:27.476Z,3.54
2019-01-11T13:08:55.244Z,3.52
2019-01-11T13:11:23.017Z,3.57
2019-01-11T13:13:50.764Z,3.66
2019-01-11T13:16:18.571Z,3.55
2019-01-11T13:18:46.316Z,3.51
2019-01-11T13:21:14.355Z,3.58
2019-01-11T13:23:42.227Z,3.42
2019-01-11T13:26:13.022Z,3.37
2019-01-11T13:28:41.006Z,3.42
2019-01-11T13:31:08.758Z,3.31
2019-01-11T13:33:36.503Z,3.34
2019-01-11T13:36:09.992Z,3.31
2019-01-11T13:38:38.204Z,3.25
2019-01-11T13:41:05.923Z,3.14
2019-01-11T13:43:33.755Z,3.18
2019-01-11T13:46:01.686Z,3.28
2019-01-11T13:48:29.553Z,3.31
2019-01-11T13:51:00.352Z,3.27
2019-01-11T13:53:28.084Z,3.36
2019-01-11T13:55:55.876Z,3.37
2019-01-11T13:58:23.836Z,3.27
2019-01-11T14:00:51.652Z,3.35
2019-01-11T14:03:19.403Z,3.28
2019-01-11T14:05:47.186Z,3.35
2019-01-11T14:08:14.978Z,3.33
2019-01-11T14:10:42.741Z,3.31
2019-01-11T14:13:10.512Z,3.36
2019-01-11T14:15:38.333Z,3.41
2019-01-11T14:18:06.775Z,3.46
2019-01-11T14:20:34.700Z,3.40
2019-01-11T14:23:02.591Z,3.29
2019-01-11T14:25:30.381Z,3.26
2019-01-11T14:27:58.159Z,3.21
2019-01-11T14:30:25.888Z,3.28
2019-01-11T14:32:53.633Z,3.23
2019-01-11T14:35:21.397Z,3.30
2019-01-11T14:37:49.207Z,3.33
2019-01-11T14:40:17.267Z,3.26
2019-01-11T14:42:45.036Z,3.22
2019-01-11T14:45:14.761Z,3.22
2019-01-11T14:47:42.561Z,3.19
2019-01-11T14:50:13.556Z,3.37
2019-01-11T14:52:41.434Z,3.33
2019-01-11T14:55:09.798Z,3.37
2019-01-11T14:57:37.751Z,3.32
2019-01-11T15:00:09.840Z,3.39
2019-01-11T15:02:37.647Z,3.34
2019-01-11T15:05:07.650Z,3.25
2019-01-11T15:07:35.389Z,3.31
2019-01-11T15:10:04.319Z,3.33
2019-01-11T15:12:32.091Z,3.32
2019-01-11T15:14:59.957Z,3.30
2019-01-11T15:17:27.739Z,3.24
2019-01-11T15:19:55.514Z,3.34
2019-01-11T15:22:26.515Z,3.42
2019-01-11T15:24:52.972Z,3.33
2019-01-11T15:27:20.728Z,3.30
2019-01-11T15:29:48.647Z,3.31
2019-01-11T15:32:16.417Z,3.39
2019-01-11T15:34:44.306Z,3.39
2019-01-11T15:37:12.128Z,3.34
2019-01-11T15:39:41.927Z,3.34
2019-01-11T15:42:10.160Z,3.38
2019-01-11T15:44:38.244Z,3.49
2019-01-11T15:47:05.968Z,3.41
2019-01-11T15:49:33.839Z,3.46
2019-01-11T15:52:01.584Z,3.48
2019-01-11T15:54:29.364Z,3.48
2019-01-11T15:56:57.136Z,3.45
2019-01-11T15:59:24.889Z,3.40
2019-01-11T16:01:54.114Z,3.49
2019-01-11T16:04:21.888Z,3.57
2019-01-11T16:06:50.204Z,3.53
2019-01-11T16:09:58.855Z,3.63
2019-01-11T16:12:51.847Z,3.63
2019-01-11T16:16:01.133Z,3.63
2019-01-11T16:18:30.998Z,3.58
2019-01-11T16:20:58.959Z,3.71
2019-01-11T16:23:26.741Z,3.63
2019-01-11T16:25:54.659Z,3.74
2019-01-11T16:28:22.469Z,3.61
2019-01-11T16:30:50.248Z,3.63
2019-01-11T16:33:18.053Z,3.71
2019-01-11T16:35:45.830Z,3.75
2019-01-11T16:38:13.612Z,3.76
2019-01-11T16:40:41.365Z,3.73
2019-01-11T16:43:09.151Z,3.70
2019-01-11T16:45:36.883Z,3.77
2019-01-11T16:48:04.726Z,3.77
2019-01-11T16:50:32.535Z,3.92
2019-01-11T16:53:00.331Z,3.90
2019-01-11T16:55:28.115Z,3.93
2019-01-11T16:57:55.878Z,3.93
2019-01-11T17:00:23.635Z,3.95
2019-01-11T17:02:51.421Z,3.97
2019-01-11T17:05:20.469Z,3.90
2019-01-11T17:07:48.237Z,4.02
2019-01-11T17:10:15.966Z,4.04
2019-01-11T17:12:43.782Z,4.06
2019-01-11T17:15:14.579Z,4.14
2019-01-11T17:17:42.392Z,4.10
2019-01-11T17:20:16.138Z,4.12
2019-01-11T17:22:43.860Z,4.23
2019-01-11T17:25:11.770Z,4.28
2019-01-11T17:27:39.616Z,4.07
2019-01-11T17:30:13.442Z,4.11
2019-01-11T17:32:41.331Z,4.13
2019-01-11T17:35:09.524Z,4.19
2019-01-11T17:37:37.322Z,4.00
2019-01-11T17:40:06.219Z,4.08
2019-01-11T17:42:33.954Z,4.29
2019-01-11T17:45:01.736Z,4.33
2019-01-11T17:47:29.496Z,4.31
2019-01-11T17:50:01.037Z,4.30
2019-01-11T17:52:26.985Z,4.27
2019-01-11T17:54:54.794Z,4.36
2019-01-11T17:57:22.598Z,4.41
2019-01-11T17:59:50.362Z,4.38
2019-01-11T18:02:18.247Z,4.38
2019-01-11T18:04:46.027Z,4.41
2019-01-11T18:07:13.831Z,4.30
2019-01-11T18:09:41.640Z,4.40
2019-01-11T18:12:10.536Z,4.33
2019-01-11T18:14:38.358Z,4.33
2019-01-11T18:17:06.178Z,4.45
2019-01-11T18:19:33.983Z,4.40
2019-01-11T18:22:02.089Z,4.46
2019-01-11T18:24:30.922Z,4.47
2019-01-11T18:26:58.747Z,4.48
2019-01-11T18:29:27.610Z,4.58
2019-01-11T18:31:55.427Z,4.48
2019-01-11T18:34:23.183Z,4.36
2019-01-11T18:36:52.701Z,4.21
2019-01-11T18:39:20.478Z,4.39
2019-01-11T18:41:48.275Z,4.44
2019-01-11T18:44:16.020Z,4.50
2019-01-11T18:46:43.819Z,4.52
2019-01-11T18:49:11.562Z,4.44
2019-01-11T18:51:39.352Z,4.64
2019-01-11T18:54:07.374Z,4.57
2019-01-11T18:56:35.163Z,4.58
2019-01-11T18:59:02.998Z,4.71
2019-01-11T19:01:30.775Z,4.79
2019-01-11T19:03:58.555Z,4.75
2019-01-11T19:06:27.431Z,4.66
2019-01-11T19:08:55.195Z,4.73
2019-01-11T19:11:23.067Z,4.71
2019-01-11T19:13:50.854Z,4.67
2019-01-11T19:16:18.649Z,4.76
2019-01-11T19:18:47.246Z,4.85
2019-01-11T19:21:15.170Z,4.52
2019-01-11T19:23:42.962Z,4.55
2019-01-11T19:26:10.775Z,4.54
2019-01-11T19:28:38.845Z,4.81
2019-01-11T19:31:07.438Z,4.75
2019-01-11T19:33:35.220Z,4.87
2019-01-11T19:36:03.203Z,4.92
2019-01-11T19:38:30.982Z,4.92
2019-01-11T19:40:58.776Z,4.86
2019-01-11T19:43:26.554Z,4.94
2019-01-11T19:45:54.362Z,4.87
2019-01-11T19:48:22.141Z,4.95
2019-01-11T19:50:51.012Z,4.97
2019-01-11T19:53:20.006Z,5.05
2019-01-11T19:55:47.798Z,4.98
2019-01-11T19:58:15.632Z,4.91
2019-01-11T20:00:44.525Z,4.96
2019-01-11T20:03:12.360Z,4.94
2019-01-11T20:05:40.466Z,5.04
2019-01-11T20:08:09.554Z,4.94
2019-01-11T20:10:37.476Z,4.92
2019-01-11T20:13:05.362Z,5.01
2019-01-11T20:15:33.207Z,5.01
2019-01-11T20:18:01.445Z,5.14
2019-01-11T20:20:29.288Z,5.13
2019-01-11T20:23:02.145Z,4.86
2019-01-11T20:25:26.992Z,4.92
2019-01-11T20:27:58.005Z,4.90
2019-01-11T20:30:27.370Z,5.08
2019-01-11T20:32:55.225Z,5.12
2019-01-11T20:35:23.227Z,5.14
2019-01-11T20:37:51.707Z,5.20
2019-01-11T20:40:19.647Z,5.32
2019-01-11T20:42:48.253Z,5.31
2019-01-11T20:45:18.689Z,5.41
2019-01-11T20:47:46.527Z,5.36
2019-01-11T20:50:20.552Z,5.40
2019-01-11T20:52:48.342Z,5.41
2019-01-11T20:55:16.225Z,5.31
2019-01-11T20:57:44.589Z,5.39
2019-01-11T21:00:22.573Z,5.34
2019-01-11T21:02:50.533Z,5.27
2019-01-11T21:05:19.133Z,5.32
2019-01-11T21:07:46.973Z,5.32
2019-01-11T21:10:15.217Z,5.30
2019-01-11T21:12:43.000Z,5.31
2019-01-11T21:15:12.023Z,5.31
2019-01-11T21:17:39.865Z,5.30
2019-01-11T21:20:10.546Z,5.35
2019-01-11T21:22:38.438Z,5.42
2019-01-11T21:25:08.534Z,5.39
2019-01-11T21:27:37.271Z,5.36
2019-01-11T21:30:11.092Z,5.37
2019-01-11T21:32:38.831Z,5.42
2019-01-11T21:35:07.446Z,5.48
2019-01-11T21:37:35.207Z,5.54
2019-01-11T21:40:04.237Z,5.38
2019-01-11T21:42:32.001Z,5.21
2019-01-11T21:45:03.530Z,5.28
2019-01-11T21:47:31.338Z,5.30
2019-01-11T21:49:59.271Z,5.27
2019-01-11T21:52:27.048Z,5.30
2019-01-11T21:54:54.933Z,5.43
2019-01-11T21:57:22.827Z,5.42
2019-01-11T21:59:50.664Z,5.55
2019-01-11T22:02:18.373Z,5.50
2019-01-11T22:04:46.608Z,5.38
2019-01-11T22:07:14.577Z,5.51
2019-01-11T22:09:42.508Z,5.45
2019-01-11T22:12:10.344Z,5.46
2019-01-11T22:14:38.299Z,5.59
2019-01-11T22:17:06.285Z,5.66
2019-01-11T22:19:34.146Z,5.64
2019-01-11T22:22:02.122Z,5.63
2019-01-11T22:24:30.252Z,5.56
2019-01-11T22:26:58.013Z,5.62
2019-01-11T22:29:26.100Z,5.58
2019-01-11T22:31:54.032Z,5.64
2019-01-11T22:34:21.972Z,5.57
2019-01-11T22:36:49.780Z,5.59
2019-01-11T22:39:20.136Z,5.53
2019-01-11T22:41:47.981Z,5.59
2019-01-11T22:44:15.817Z,5.67
2019-01-11T22:46:43.733Z,5.65
2019-01-11T22:49:11.463Z,5.58
2019-01-11T22:51:39.274Z,5.52
2019-01-11T22:54:10.526Z,5.61
2019-01-11T22:56:36.740Z,5.67
2019-01-11T22:59:04.517Z,5.64
2019-01-11T23:01:57.637Z,5.61
2019-01-11T23:04:25.473Z,5.63
2019-01-11T23:07:32.845Z,5.66
2019-01-11T23:10:15.268Z,5.62
2019-01-11T23:13:00.961Z,5.64
2019-01-11T23:15:35.729Z,5.59
2019-01-11T23:18:11.221Z,5.62
2019-01-11T23:20:39.034Z,5.50
2019-01-11T23:23:06.809Z,5.51
2019-01-11T23:25:34.558Z,5.60
2019-01-11T23:28:02.306Z,5.65
2019-01-11T23:30:30.119Z,5.65
2019-01-11T23:32:58.240Z,5.88
2019-01-11T23:35:26.007Z,5.69
2019-01-11T23:37:53.750Z,5.68
2019-01-11T23:40:21.515Z,5.77
2019-01-11T23:42:49.313Z,5.94
2019-01-11T23:45:17.139Z,5.92
2019-01-11T23:47:44.869Z,5.95
2019-01-11T23:50:15.885Z,5.74
2019-01-11T23:52:43.984Z,5.93
2019-01-11T23:55:11.998Z,6.03
2019-01-11T23:57:39.766Z,6.01
